메인 페이지
METAR-TAF:

METAR-TAF

공항 :

다치카와, 일본

위도: 35-42N, 경도: 139-24E, 고도: 95m

현재 날씨관측

예보는 23 시간 35분 전, 02:25시(UTC)에 발표되었습니다.
북북동5kt북북서풍과 풍을 오가는
온도 24°C
습도 65%
기압 1005 hPa
시정 10km 이상
고도 1000ft 상공 구름 조금
고도 12000ft 상공 구름 보통
고도 23000ft 상공 구름 많음

METAR: RJTC 240225Z 02005KT 340V090 9999 FEW010 SCT120 BKN230 24/17 Q1005 RMK 1ST010 3AC120 6CI230 A2970

시각: 11:00 (02:00 UTC)


TAF: 누락

4,000개 이상의 공항 관측 자료 및 예보 (METAR 및 TAF 보고).

지도상에서 검색 가능한 기상관측소가 노란 점과 빨간 점으로 표시되어 있습니다.

기상관측소 명을 보려면 표시 위로 마우스를 이동하세요.

날씨 관측과 예보를 보려면 클릭하세요.

지도 변경 : 확대하려면 엑스 표시가 있는 녹색 버튼, 축소하려면 빼기 표시가 있는 녹색 버튼, 다음 페이지의 지도를 보려면 녹색 화살표를 클릭하세요.


METAR-TAF: